Time;durP1;ratioP1;P1;durP2;ratioP2;P2;SDS_P1;SDS_P2;PMS_P1;PMS_P2;Temp;Humidity;BMP_temperature;BMP_pressure;BME280_temperature;BME280_humidity;BME280_pressure;Samples;Min_cycle;Max_cycle;Signal;HPM_P1;HPM_P2
2023/12/10 00:02:14;;;;;;;9.98;1.73;;;8.50;99.90;;;;;;4963443;28;20056;-53
2023/12/10 00:04:40;;;;;;;10.65;1.80;;;8.70;99.90;;;;;;4963822;28;20042;-56
2023/12/10 00:07:06;;;;;;;11.18;1.75;;;8.80;99.90;;;;;;4969172;28;20103;-51
2023/12/10 00:09:31;;;;;;;8.75;1.42;;;9.00;99.90;;;;;;4969518;28;20462;-55
2023/12/10 00:11:57;;;;;;;13.15;1.80;;;9.00;99.90;;;;;;4974125;28;20030;-52
2023/12/10 00:14:25;;;;;;;12.68;1.90;;;9.00;99.90;;;;;;4971705;28;20110;-57
2023/12/10 00:16:50;;;;;;;3.85;1.17;;;9.00;99.90;;;;;;4974108;28;20041;-53
2023/12/10 00:19:16;;;;;;;10.20;1.60;;;9.00;99.90;;;;;;4969940;28;20019;-50
2023/12/10 00:21:42;;;;;;;8.23;1.23;;;9.00;99.90;;;;;;4977150;28;20037;-57
2023/12/10 00:24:08;;;;;;;12.52;1.65;;;8.90;99.90;;;;;;4961728;28;20298;-52
2023/12/10 00:26:34;;;;;;;10.52;2.15;;;8.90;99.90;;;;;;4974607;28;20015;-59
2023/12/10 00:28:59;;;;;;;6.63;1.30;;;8.90;99.90;;;;;;4971826;28;20215;-57
2023/12/10 00:31:25;;;;;;;12.63;2.25;;;8.80;99.90;;;;;;4963679;28;20023;-53
2023/12/10 00:33:51;;;;;;;15.82;2.30;;;8.80;99.90;;;;;;4977416;28;20513;-54
2023/12/10 00:36:18;;;;;;;14.93;2.17;;;8.80;99.90;;;;;;4976429;28;20070;-51
2023/12/10 00:38:45;;;;;;;18.65;2.42;;;8.70;99.90;;;;;;4977498;28;20033;-55
2023/12/10 00:41:11;;;;;;;10.32;1.60;;;8.70;99.90;;;;;;4977424;28;20023;-55
2023/12/10 00:43:40;;;;;;;8.75;1.98;;;8.70;99.90;;;;;;4974519;28;20089;-52
2023/12/10 00:46:09;;;;;;;13.43;1.80;;;8.70;99.90;;;;;;4977225;28;20714;-55
2023/12/10 00:48:36;;;;;;;10.73;2.17;;;8.70;99.90;;;;;;4977113;28;20510;-52
2023/12/10 00:51:02;;;;;;;13.70;1.58;;;8.80;99.90;;;;;;4977140;28;20038;-54
2023/12/10 00:53:28;;;;;;;10.40;1.60;;;8.80;99.90;;;;;;4977061;28;20037;-52
2023/12/10 00:55:54;;;;;;;9.82;2.28;;;8.80;99.90;;;;;;4976817;28;20540;-53
2023/12/10 00:58:19;;;;;;;13.68;2.25;;;8.70;99.90;;;;;;4976791;28;20114;-50
2023/12/10 01:00:45;;;;;;;10.20;1.55;;;8.80;99.90;;;;;;4975865;28;20484;-52
2023/12/10 01:03:11;;;;;;;10.35;2.05;;;8.80;99.90;;;;;;4973615;28;20042;-61
2023/12/10 01:05:37;;;;;;;13.15;1.92;;;8.80;99.90;;;;;;4973933;28;20035;-55
2023/12/10 01:08:03;;;;;;;9.77;1.95;;;8.80;99.90;;;;;;4974118;28;20022;-59
2023/12/10 01:10:29;;;;;;;10.88;1.85;;;8.70;99.90;;;;;;4973782;28;20027;-58
2023/12/10 01:12:56;;;;;;;14.15;2.83;;;8.70;99.90;;;;;;4973618;28;20039;-53
2023/12/10 01:15:29;;;;;;;19.63;2.33;;;8.70;99.90;;;;;;4973785;28;20108;-57
2023/12/10 01:18:01;;;;;;;7.20;1.67;;;8.70;99.90;;;;;;4973862;28;20380;-55
2023/12/10 01:20:31;;;;;;;16.38;2.28;;;8.70;99.90;;;;;;4973570;28;20054;-58
2023/12/10 01:22:57;;;;;;;11.30;1.80;;;8.70;99.90;;;;;;4973556;28;20154;-55
2023/12/10 01:25:26;;;;;;;12.32;2.00;;;8.70;99.90;;;;;;4973723;28;20122;-56
2023/12/10 01:27:55;;;;;;;15.15;2.53;;;8.70;99.90;;;;;;4959785;28;20480;-56
2023/12/10 01:30:24;;;;;;;11.30;1.90;;;8.70;99.90;;;;;;4973778;28;20029;-57
2023/12/10 01:32:51;;;;;;;19.70;2.20;;;8.80;99.90;;;;;;4973460;28;20030;-56
2023/12/10 01:35:17;;;;;;;17.35;2.83;;;8.80;99.90;;;;;;4973567;28;20027;-56
2023/12/10 01:37:43;;;;;;;20.40;3.10;;;8.80;99.90;;;;;;4973362;28;20034;-49
2023/12/10 01:40:09;;;;;;;13.15;1.65;;;8.80;99.90;;;;;;4973408;28;20023;-49
2023/12/10 01:42:35;;;;;;;16.58;2.40;;;8.80;99.90;;;;;;4973377;28;20022;-49
2023/12/10 01:45:05;;;;;;;14.45;2.42;;;8.80;99.90;;;;;;4973020;28;20071;-57
2023/12/10 01:47:34;;;;;;;12.68;1.90;;;8.80;99.90;;;;;;4973351;28;20483;-56
2023/12/10 01:50:04;;;;;;;11.50;1.70;;;8.70;99.90;;;;;;4973210;28;20027;-54
2023/12/10 01:52:34;;;;;;;17.65;2.70;;;8.70;99.90;;;;;;4973004;28;20396;-52
2023/12/10 01:55:03;;;;;;;12.68;1.77;;;8.70;99.90;;;;;;4973049;28;20034;-53
2023/12/10 01:57:32;;;;;;;13.52;2.08;;;8.70;99.90;;;;;;4973136;28;20031;-54
2023/12/10 01:59:59;;;;;;;13.82;2.13;;;8.60;99.90;;;;;;4973052;28;20259;-53
2023/12/10 02:02:26;;;;;;;8.05;1.88;;;8.60;99.90;;;;;;4973121;28;20268;-52
2023/12/10 02:04:54;;;;;;;12.50;2.00;;;8.60;99.90;;;;;;4955506;28;20031;-50
2023/12/10 02:07:22;;;;;;;6.18;1.58;;;8.50;99.90;;;;;;4972833;28;20026;-52
2023/12/10 02:09:49;;;;;;;12.68;2.08;;;8.50;99.90;;;;;;4973002;28;20031;-54
2023/12/10 02:12:18;;;;;;;15.32;1.90;;;8.50;99.90;;;;;;4972427;28;20076;-51
2023/12/10 02:14:44;;;;;;;11.23;2.20;;;8.50;99.90;;;;;;4972804;28;20037;-51
2023/12/10 02:17:09;;;;;;;14.10;2.15;;;8.60;99.90;;;;;;4972603;28;20062;-51
2023/12/10 02:19:35;;;;;;;17.38;2.60;;;8.50;99.90;;;;;;4972616;28;20074;-52
2023/12/10 02:22:02;;;;;;;26.17;3.35;;;8.50;99.90;;;;;;4972726;28;20534;-51
2023/12/10 02:24:50;;;;;;;13.45;2.65;;;8.50;99.90;;;;;;4959299;28;20074;-51
2023/12/10 02:27:16;;;;;;;15.52;2.55;;;8.40;99.90;;;;;;4972344;28;20042;-56
2023/12/10 02:29:42;;;;;;;14.57;2.72;;;8.40;99.90;;;;;;4972266;28;20491;-50
2023/12/10 02:32:08;;;;;;;14.70;2.83;;;8.40;99.90;;;;;;4972445;28;20027;-49
2023/12/10 02:34:35;;;;;;;12.32;2.72;;;8.40;99.90;;;;;;4954853;28;20034;-54
2023/12/10 02:37:00;;;;;;;10.63;2.00;;;8.40;99.90;;;;;;4955286;28;20023;-53
2023/12/10 02:39:26;;;;;;;10.90;1.65;;;8.30;99.90;;;;;;4970403;28;20110;-49
2023/12/10 02:41:52;;;;;;;10.13;1.70;;;8.40;99.90;;;;;;4972282;28;20037;-53
2023/12/10 02:44:18;;;;;;;18.05;2.60;;;8.30;99.90;;;;;;4967671;28;20043;-53
2023/12/10 02:46:50;;;;;;;13.05;1.75;;;8.30;99.90;;;;;;4952984;28;20024;-54
2023/12/10 02:49:16;;;;;;;13.88;1.92;;;8.40;99.90;;;;;;4952505;28;20475;-53
2023/12/10 02:51:41;;;;;;;18.27;2.35;;;8.40;99.90;;;;;;4952894;28;20043;-53
2023/12/10 02:54:07;;;;;;;13.40;1.73;;;8.40;99.90;;;;;;4952755;28;20511;-52
2023/12/10 02:56:33;;;;;;;16.48;1.85;;;8.50;99.90;;;;;;4962450;28;20098;-53
2023/12/10 02:58:59;;;;;;;15.18;2.28;;;8.40;99.90;;;;;;4955999;28;20192;-55
2023/12/10 03:01:24;;;;;;;10.93;2.17;;;8.40;99.90;;;;;;4952705;28;20023;-56
2023/12/10 03:03:50;;;;;;;17.13;2.55;;;8.40;99.90;;;;;;4952487;28;20093;-52
2023/12/10 03:06:16;;;;;;;13.32;3.08;;;8.50;99.90;;;;;;4952688;28;20027;-53
2023/12/10 03:08:41;;;;;;;14.98;2.55;;;8.50;99.90;;;;;;4952627;28;20035;-52
2023/12/10 03:11:07;;;;;;;13.75;2.25;;;8.50;99.90;;;;;;4935133;29;20027;-53
2023/12/10 03:13:33;;;;;;;12.73;1.95;;;8.40;99.90;;;;;;4961922;28;20034;-53
2023/12/10 03:15:58;;;;;;;5.35;1.17;;;8.40;99.90;;;;;;4956637;28;20023;-50
2023/12/10 03:18:25;;;;;;;13.88;2.30;;;8.40;99.90;;;;;;4952714;28;20439;-54
2023/12/10 03:20:51;;;;;;;8.85;1.70;;;8.40;99.90;;;;;;4952299;28;20086;-56
2023/12/10 03:23:17;;;;;;;7.60;1.85;;;8.50;99.90;;;;;;4952156;28;20437;-51
2023/12/10 03:25:43;;;;;;;15.25;2.00;;;8.50;99.90;;;;;;4951675;28;20080;-50
2023/12/10 03:28:09;;;;;;;8.65;1.63;;;8.50;99.90;;;;;;4951819;28;20104;-56
2023/12/10 03:30:34;;;;;;;8.88;1.40;;;8.50;99.90;;;;;;4952310;28;20497;-56
2023/12/10 03:33:00;;;;;;;10.75;1.77;;;8.50;99.90;;;;;;4952074;28;20075;-55
2023/12/10 03:35:26;;;;;;;18.83;2.65;;;8.40;99.90;;;;;;4952243;28;20023;-54
2023/12/10 03:37:51;;;;;;;10.40;1.65;;;8.40;99.90;;;;;;4952117;28;20097;-55
2023/12/10 03:40:17;;;;;;;16.42;2.15;;;8.40;99.90;;;;;;4952121;28;20035;-56
2023/12/10 03:42:43;;;;;;;11.27;1.48;;;8.40;99.90;;;;;;4951802;28;20031;-56
2023/12/10 03:45:09;;;;;;;11.80;1.88;;;8.40;99.90;;;;;;4951966;28;20424;-52
2023/12/10 03:47:35;;;;;;;16.58;1.85;;;8.40;99.90;;;;;;4960467;28;20031;-55
2023/12/10 03:50:01;;;;;;;11.20;1.63;;;8.40;99.90;;;;;;4956992;28;20047;-52
2023/12/10 03:52:27;;;;;;;12.90;2.58;;;8.40;99.90;;;;;;4925481;28;20105;-56
2023/12/10 03:54:52;;;;;;;12.13;1.67;;;8.40;99.90;;;;;;4959074;28;20190;-56
2023/12/10 03:57:18;;;;;;;5.93;1.58;;;8.40;99.90;;;;;;4951795;28;20039;-58
2023/12/10 03:59:44;;;;;;;9.95;2.30;;;8.40;99.90;;;;;;4951860;28;20039;-52
2023/12/10 04:02:09;;;;;;;14.65;2.97;;;8.40;99.90;;;;;;4951881;28;20063;-56
2023/12/10 04:04:36;;;;;;;10.35;2.30;;;8.40;99.90;;;;;;4951851;28;20039;-51
2023/12/10 04:07:01;;;;;;;14.40;2.05;;;8.40;99.90;;;;;;4934701;28;20038;-54
2023/12/10 04:09:27;;;;;;;19.52;2.30;;;8.30;99.90;;;;;;4951945;28;20035;-55
2023/12/10 04:11:55;;;;;;;15.23;1.88;;;8.40;99.90;;;;;;4951967;28;20023;-55
2023/12/10 04:14:21;;;;;;;11.77;2.40;;;8.40;99.90;;;;;;4951563;28;20027;-52
2023/12/10 04:16:46;;;;;;;18.20;1.75;;;8.40;99.90;;;;;;4952041;28;20019;-50
2023/12/10 04:19:12;;;;;;;6.55;1.92;;;8.40;99.90;;;;;;4951477;28;20031;-53
2023/12/10 04:21:38;;;;;;;10.02;1.80;;;8.40;99.90;;;;;;4951940;28;20373;-55
2023/12/10 04:24:04;;;;;;;13.05;2.08;;;8.40;99.90;;;;;;4951643;28;20062;-58
2023/12/10 04:26:29;;;;;;;16.55;2.28;;;8.40;99.90;;;;;;4951674;28;20106;-52
2023/12/10 04:28:55;;;;;;;10.15;1.75;;;8.40;99.90;;;;;;4951579;28;20114;-55
2023/12/10 04:31:21;;;;;;;8.35;1.52;;;8.40;99.90;;;;;;4951614;28;20019;-49
2023/12/10 04:33:46;;;;;;;16.33;2.72;;;8.40;99.90;;;;;;4951672;28;20028;-54
2023/12/10 04:36:13;;;;;;;16.05;2.22;;;8.40;99.90;;;;;;4953206;28;20023;-52
2023/12/10 04:38:45;;;;;;;10.82;2.17;;;8.50;99.90;;;;;;4955475;28;20078;-56
2023/12/10 04:41:10;;;;;;;7.07;2.85;;;8.40;99.90;;;;;;4954930;28;20035;-54
2023/12/10 04:43:36;;;;;;;20.23;2.60;;;8.50;99.90;;;;;;4955135;28;20694;-58
2023/12/10 04:46:02;;;;;;;16.70;2.30;;;8.50;99.90;;;;;;4955447;28;20031;-55
2023/12/10 04:48:28;;;;;;;18.73;2.58;;;8.50;99.90;;;;;;4968912;28;20407;-51
2023/12/10 04:50:53;;;;;;;24.63;2.58;;;8.60;99.90;;;;;;4938043;29;20385;-55
2023/12/10 04:53:19;;;;;;;7.68;1.88;;;8.60;99.90;;;;;;4955228;28;20062;-53
2023/12/10 04:55:44;;;;;;;12.50;2.90;;;8.70;99.90;;;;;;4954924;28;20510;-54
2023/12/10 04:58:10;;;;;;;11.25;1.73;;;8.70;99.90;;;;;;4954801;28;20392;-57
2023/12/10 05:00:36;;;;;;;17.95;2.67;;;8.70;99.90;;;;;;4954955;28;20054;-54
2023/12/10 05:03:01;;;;;;;11.52;1.60;;;8.80;99.90;;;;;;4937690;29;20030;-59
2023/12/10 05:05:27;;;;;;;15.90;2.50;;;8.80;99.90;;;;;;4954785;28;20055;-55
2023/12/10 05:07:53;;;;;;;17.67;2.15;;;8.90;99.90;;;;;;4954916;28;20031;-57
2023/12/10 05:10:18;;;;;;;15.95;1.70;;;9.00;99.90;;;;;;4954785;28;20031;-53
2023/12/10 05:12:44;;;;;;;14.23;2.78;;;9.00;99.90;;;;;;4954533;28;20023;-57
2023/12/10 05:15:10;;;;;;;16.73;2.55;;;9.00;99.90;;;;;;4954817;28;20110;-56
2023/12/10 05:17:35;;;;;;;14.05;2.25;;;9.00;99.90;;;;;;4954482;28;20030;-56
2023/12/10 05:20:02;;;;;;;19.50;2.50;;;9.00;99.90;;;;;;4954649;28;20142;-56
2023/12/10 05:22:28;;;;;;;14.90;1.92;;;9.00;99.90;;;;;;4954478;28;20027;-60
2023/12/10 05:24:54;;;;;;;19.52;2.35;;;9.00;99.90;;;;;;4954351;28;20058;-60
2023/12/10 05:27:19;;;;;;;18.10;3.22;;;9.00;99.90;;;;;;4954458;28;20031;-54
2023/12/10 05:29:45;;;;;;;7.63;2.55;;;9.00;99.90;;;;;;4954266;28;20032;-56
2023/12/10 05:32:11;;;;;;;14.73;1.85;;;9.00;99.90;;;;;;4954409;28;20034;-58
2023/12/10 05:34:36;;;;;;;20.80;2.67;;;9.10;99.90;;;;;;4954350;28;20023;-52
2023/12/10 05:37:02;;;;;;;19.90;2.55;;;9.10;99.90;;;;;;4954267;28;20038;-56
2023/12/10 05:39:27;;;;;;;17.40;2.20;;;9.10;99.90;;;;;;4954052;28;20054;-55
2023/12/10 05:41:53;;;;;;;14.25;2.80;;;9.10;99.90;;;;;;4954313;28;20027;-58
2023/12/10 05:44:19;;;;;;;14.63;2.22;;;9.10;99.90;;;;;;4953873;28;20054;-56
2023/12/10 05:46:44;;;;;;;25.60;3.15;;;9.00;99.90;;;;;;4955375;28;20023;-59
2023/12/10 05:49:10;;;;;;;14.93;2.58;;;9.00;99.90;;;;;;4965448;28;20387;-56
2023/12/10 05:51:36;;;;;;;22.52;2.60;;;8.90;99.90;;;;;;4954235;28;20392;-56
2023/12/10 05:54:02;;;;;;;24.13;2.63;;;9.00;99.90;;;;;;4953691;28;20027;-51
2023/12/10 05:56:28;;;;;;;13.23;2.05;;;9.10;99.90;;;;;;4954087;28;20082;-49
2023/12/10 05:58:53;;;;;;;11.38;2.00;;;9.10;99.90;;;;;;4953659;28;20038;-49
2023/12/10 06:01:19;;;;;;;19.38;2.88;;;9.20;99.90;;;;;;4954086;28;20787;-53
2023/12/10 06:03:45;;;;;;;15.95;3.15;;;9.30;99.90;;;;;;4953674;28;20079;-57
2023/12/10 06:06:10;;;;;;;14.27;2.10;;;9.30;99.90;;;;;;4953771;28;20019;-55
2023/12/10 06:08:36;;;;;;;17.85;2.90;;;9.40;99.90;;;;;;4953701;28;20075;-57
2023/12/10 06:11:02;;;;;;;14.95;2.10;;;9.40;99.90;;;;;;4953340;28;20535;-50
2023/12/10 06:13:28;;;;;;;16.23;2.80;;;9.30;99.90;;;;;;4953486;28;20082;-57
2023/12/10 06:15:56;;;;;;;11.75;2.28;;;9.30;99.90;;;;;;4953422;28;20015;-53
2023/12/10 06:18:21;;;;;;;20.02;2.38;;;9.30;99.90;;;;;;4953592;28;20394;-54
2023/12/10 06:20:47;;;;;;;26.02;2.85;;;9.30;99.90;;;;;;4950960;28;20051;-53
2023/12/10 06:23:13;;;;;;;14.02;2.50;;;9.40;99.90;;;;;;4965884;28;20027;-54
2023/12/10 06:25:38;;;;;;;16.55;2.15;;;9.40;99.90;;;;;;4965758;28;20045;-55
2023/12/10 06:28:05;;;;;;;21.48;3.53;;;9.40;99.90;;;;;;4958153;28;20047;-55
2023/12/10 06:30:31;;;;;;;14.77;2.60;;;9.50;99.90;;;;;;4965452;28;20062;-54
2023/12/10 06:32:57;;;;;;;23.10;2.70;;;9.50;99.90;;;;;;4963380;28;20028;-52
2023/12/10 06:35:22;;;;;;;19.30;3.05;;;9.50;99.90;;;;;;4968798;28;20049;-52
2023/12/10 06:37:49;;;;;;;15.02;2.75;;;9.50;99.90;;;;;;4964556;28;20067;-52
2023/12/10 06:40:15;;;;;;;14.55;2.63;;;9.50;99.90;;;;;;4970165;28;20015;-53
2023/12/10 06:42:40;;;;;;;10.48;2.50;;;9.50;99.90;;;;;;4969755;28;20480;-53
2023/12/10 06:45:07;;;;;;;19.30;3.38;;;9.50;99.90;;;;;;4969159;28;20136;-53
2023/12/10 06:47:33;;;;;;;12.68;2.50;;;9.50;99.90;;;;;;4970788;28;20073;-58
2023/12/10 06:49:59;;;;;;;10.73;2.28;;;9.50;99.90;;;;;;4958422;28;20118;-53
2023/12/10 06:52:25;;;;;;;16.80;2.72;;;9.60;99.90;;;;;;4952807;28;20041;-52
2023/12/10 06:54:51;;;;;;;13.35;2.70;;;9.60;99.90;;;;;;4964691;28;20027;-55
2023/12/10 06:57:17;;;;;;;10.98;1.98;;;9.60;99.90;;;;;;4967637;28;20023;-54
2023/12/10 06:59:43;;;;;;;15.52;2.28;;;9.60;99.90;;;;;;4953795;28;20027;-56
2023/12/10 07:02:09;;;;;;;20.73;3.05;;;9.60;99.90;;;;;;4956831;28;20106;-56
2023/12/10 07:04:35;;;;;;;11.23;2.72;;;9.60;99.90;;;;;;4954657;28;20039;-58
2023/12/10 07:07:01;;;;;;;17.05;2.80;;;9.60;99.90;;;;;;4965559;28;20114;-53
2023/12/10 07:09:27;;;;;;;21.15;3.28;;;9.60;99.90;;;;;;4964464;28;20122;-55
2023/12/10 07:11:52;;;;;;;16.10;2.72;;;9.60;99.90;;;;;;4954059;28;20027;-55
2023/12/10 07:14:18;;;;;;;14.50;2.60;;;9.60;99.90;;;;;;4955950;28;20115;-55
2023/12/10 07:16:43;;;;;;;16.60;2.47;;;9.60;99.90;;;;;;4967973;28;20101;-55
2023/12/10 07:19:09;;;;;;;15.60;2.15;;;9.70;99.90;;;;;;4965040;28;20065;-51
2023/12/10 07:21:35;;;;;;;19.27;3.42;;;9.70;99.90;;;;;;4966726;28;20102;-54
2023/12/10 07:24:01;;;;;;;23.90;3.45;;;9.70;99.90;;;;;;4966786;28;20345;-52
2023/12/10 07:26:26;;;;;;;16.55;2.47;;;9.70;99.90;;;;;;4962244;28;20058;-52
2023/12/10 07:28:52;;;;;;;21.30;2.55;;;9.80;99.90;;;;;;4965218;28;20026;-51
2023/12/10 07:31:18;;;;;;;22.73;3.38;;;9.90;99.90;;;;;;4960758;28;20139;-53
2023/12/10 07:33:44;;;;;;;21.17;2.88;;;9.90;99.90;;;;;;4956132;28;20030;-53
2023/12/10 07:36:10;;;;;;;14.70;2.65;;;9.90;99.90;;;;;;4962461;28;20035;-56
2023/12/10 07:38:37;;;;;;;23.25;3.35;;;9.90;99.90;;;;;;4963316;28;20023;-53
2023/12/10 07:41:04;;;;;;;21.42;3.03;;;9.80;99.90;;;;;;4964529;28;20035;-53
2023/12/10 07:43:33;;;;;;;23.70;3.45;;;9.80;99.90;;;;;;4963646;28;20035;-57
2023/12/10 07:45:59;;;;;;;21.60;2.78;;;9.80;99.90;;;;;;4967116;28;20166;-50
2023/12/10 07:48:25;;;;;;;22.42;3.65;;;9.70;99.90;;;;;;4965988;28;20170;-54
2023/12/10 07:50:50;;;;;;;13.95;2.72;;;9.70;99.90;;;;;;4952009;28;20027;-56
2023/12/10 07:53:17;;;;;;;16.23;3.30;;;9.70;99.90;;;;;;4952243;28;20023;-55
2023/12/10 07:55:43;;;;;;;16.45;2.83;;;9.80;99.90;;;;;;4951871;28;20035;-52
2023/12/10 07:58:09;;;;;;;25.90;2.75;;;9.80;99.90;;;;;;4960893;28;20395;-54
2023/12/10 08:00:34;;;;;;;18.35;3.03;;;9.90;99.90;;;;;;4968293;28;20099;-52
2023/12/10 08:03:00;;;;;;;26.08;3.47;;;9.90;99.90;;;;;;4966589;28;20023;-53
2023/12/10 08:05:26;;;;;;;25.88;3.30;;;9.90;99.90;;;;;;4958580;28;20369;-49
2023/12/10 08:07:51;;;;;;;19.38;3.08;;;9.90;99.90;;;;;;4955422;28;20456;-52
2023/12/10 08:10:20;;;;;;;18.75;3.33;;;10.00;99.90;;;;;;4955923;28;20032;-55
2023/12/10 08:12:45;;;;;;;23.48;3.60;;;10.00;99.90;;;;;;4958632;28;20539;-54
2023/12/10 08:15:11;;;;;;;19.45;2.80;;;10.00;99.90;;;;;;4959517;28;20043;-52
2023/12/10 08:17:37;;;;;;;18.38;3.00;;;10.00;99.90;;;;;;4971546;28;20027;-52
2023/12/10 08:20:04;;;;;;;17.40;2.63;;;10.00;99.90;;;;;;4973329;28;20062;-58
2023/12/10 08:22:30;;;;;;;18.55;4.00;;;10.00;99.90;;;;;;4972538;28;20031;-49
2023/12/10 08:24:56;;;;;;;19.05;2.47;;;10.00;99.90;;;;;;4956376;28;20044;-51
2023/12/10 08:27:21;;;;;;;19.05;3.50;;;10.10;99.90;;;;;;4956828;28;20089;-49
2023/12/10 08:29:47;;;;;;;17.25;2.42;;;10.10;99.90;;;;;;4956610;28;20031;-54
2023/12/10 08:32:13;;;;;;;20.00;3.40;;;10.20;99.90;;;;;;4956348;28;20035;-52
2023/12/10 08:34:38;;;;;;;27.88;3.72;;;10.20;99.90;;;;;;4956898;28;20055;-54
2023/12/10 08:37:06;;;;;;;24.13;3.65;;;10.20;99.90;;;;;;4956496;28;20023;-53
2023/12/10 08:39:31;;;;;;;28.33;2.80;;;10.20;99.90;;;;;;4955738;28;20572;-50
2023/12/10 08:41:57;;;;;;;17.75;3.53;;;10.30;99.90;;;;;;4955370;28;20110;-52
2023/12/10 08:44:25;;;;;;;16.33;2.78;;;10.30;99.90;;;;;;4956226;28;20373;-52
2023/12/10 08:46:51;;;;;;;13.50;1.88;;;10.30;99.90;;;;;;4958272;28;20031;-52
2023/12/10 08:49:17;;;;;;;19.17;3.72;;;10.40;99.90;;;;;;4966169;28;20023;-51
2023/12/10 08:51:43;;;;;;;20.75;2.42;;;10.40;99.90;;;;;;4954912;28;20034;-49
2023/12/10 08:54:09;;;;;;;18.45;2.85;;;10.40;99.90;;;;;;4954820;28;20019;-50
2023/12/10 08:56:34;;;;;;;15.82;2.88;;;10.50;99.90;;;;;;4954925;28;20053;-50
2023/12/10 08:59:00;;;;;;;16.38;3.17;;;10.50;99.90;;;;;;4954675;28;20031;-52
2023/12/10 09:01:26;;;;;;;18.70;2.85;;;10.50;99.90;;;;;;4955601;28;20024;-52
2023/12/10 09:03:51;;;;;;;22.40;3.20;;;10.50;99.90;;;;;;4937399;28;20424;-53
2023/12/10 09:06:17;;;;;;;21.00;2.97;;;10.60;99.90;;;;;;4959101;28;20019;-50
2023/12/10 09:08:43;;;;;;;23.23;3.20;;;10.70;99.90;;;;;;4973504;28;20185;-50
2023/12/10 09:11:08;;;;;;;22.70;2.88;;;10.70;99.90;;;;;;4966401;28;20046;-52
2023/12/10 09:13:35;;;;;;;20.73;2.97;;;10.80;99.90;;;;;;4969738;28;20506;-49
2023/12/10 09:16:01;;;;;;;20.65;3.25;;;10.90;99.90;;;;;;4965428;28;20023;-49
2023/12/10 09:18:27;;;;;;;22.02;2.88;;;11.00;99.90;;;;;;4969643;28;20113;-49
2023/12/10 09:20:54;;;;;;;27.38;3.95;;;11.00;99.90;;;;;;4969777;28;20165;-51
2023/12/10 09:23:23;;;;;;;21.35;3.60;;;11.00;99.90;;;;;;4969234;28;20019;-54
2023/12/10 09:25:49;;;;;;;18.95;3.65;;;11.00;99.90;;;;;;4968983;28;20023;-52
2023/12/10 09:28:14;;;;;;;17.10;3.10;;;11.00;99.90;;;;;;4968554;28;20026;-53
2023/12/10 09:30:40;;;;;;;14.38;2.97;;;11.00;99.90;;;;;;4970079;28;20030;-53
2023/12/10 09:33:06;;;;;;;21.73;2.92;;;11.10;99.90;;;;;;4966832;28;20095;-56
2023/12/10 09:35:32;;;;;;;15.63;3.08;;;11.20;99.90;;;;;;4970221;28;20158;-54
2023/12/10 09:37:58;;;;;;;20.38;2.67;;;11.30;99.90;;;;;;4966749;28;20469;-56
2023/12/10 09:40:23;;;;;;;19.20;2.22;;;11.30;99.90;;;;;;4969936;28;20031;-55
2023/12/10 09:42:49;;;;;;;17.38;2.72;;;11.30;99.90;;;;;;4960993;28;20046;-56
2023/12/10 09:45:15;;;;;;;18.92;2.55;;;11.40;99.90;;;;;;4954762;28;20031;-57
2023/12/10 09:47:43;;;;;;;18.30;2.67;;;11.40;99.90;;;;;;4963438;28;20034;-57
2023/12/10 09:50:08;;;;;;;16.55;2.97;;;11.50;99.90;;;;;;4968244;28;20451;-56
2023/12/10 09:52:34;;;;;;;18.98;2.35;;;11.50;99.90;;;;;;4970752;28;20106;-56
2023/12/10 09:55:00;;;;;;;21.02;2.88;;;11.50;99.90;;;;;;4972034;28;20027;-57
2023/12/10 09:57:28;;;;;;;24.55;3.63;;;11.60;99.90;;;;;;4967036;28;20107;-59
2023/12/10 09:59:53;;;;;;;18.42;2.63;;;11.70;99.90;;;;;;4954665;28;20038;-53
2023/12/10 10:02:19;;;;;;;17.33;2.78;;;11.80;99.90;;;;;;4955833;28;20030;-58
2023/12/10 10:04:45;;;;;;;14.45;2.17;;;11.90;99.90;;;;;;4954714;28;20035;-52
2023/12/10 10:07:13;;;;;;;20.38;3.15;;;11.90;99.90;;;;;;4956008;28;20212;-49
2023/12/10 10:09:39;;;;;;;16.02;2.60;;;11.90;99.90;;;;;;4954881;28;20031;-53
2023/12/10 10:12:06;;;;;;;17.60;3.13;;;11.80;99.90;;;;;;4962698;28;20084;-56
2023/12/10 10:14:31;;;;;;;25.98;2.92;;;11.80;99.90;;;;;;4962244;28;20123;-55
2023/12/10 10:16:57;;;;;;;29.77;2.75;;;11.60;99.90;;;;;;4967219;28;20118;-52
2023/12/10 10:19:23;;;;;;;15.88;2.30;;;11.50;99.90;;;;;;4962484;28;20126;-54
2023/12/10 10:21:49;;;;;;;12.27;2.47;;;11.50;99.90;;;;;;4966070;28;20098;-56
2023/12/10 10:24:15;;;;;;;13.15;2.25;;;11.40;99.90;;;;;;4969106;28;20038;-57
2023/12/10 10:26:41;;;;;;;18.83;2.75;;;11.30;99.90;;;;;;4956619;28;20533;-53
2023/12/10 10:29:08;;;;;;;16.25;2.72;;;11.30;99.90;;;;;;4941503;28;20035;-53
2023/12/10 10:31:34;;;;;;;13.98;2.28;;;11.30;99.90;;;;;;4953826;28;20058;-52
2023/12/10 10:34:03;;;;;;;18.40;2.90;;;11.30;99.90;;;;;;4952406;28;20031;-53
2023/12/10 10:36:29;;;;;;;12.93;2.00;;;11.40;99.90;;;;;;4952903;28;20511;-53
2023/12/10 10:38:56;;;;;;;24.13;3.20;;;11.40;99.90;;;;;;4952061;28;20113;-52
2023/12/10 10:41:25;;;;;;;17.58;2.83;;;11.40;99.90;;;;;;4953210;28;20020;-57
2023/12/10 10:43:51;;;;;;;11.93;2.27;;;11.40;99.90;;;;;;4951997;28;20039;-53
2023/12/10 10:46:21;;;;;;;25.50;3.70;;;11.40;99.90;;;;;;4953303;28;20276;-55
2023/12/10 10:48:53;;;;;;;25.88;2.50;;;11.30;99.90;;;;;;4964533;28;20050;-56
2023/12/10 10:51:25;;;;;;;17.27;2.47;;;11.30;99.90;;;;;;4952515;28;20065;-53
2023/12/10 10:53:54;;;;;;;15.38;2.05;;;11.30;99.90;;;;;;4952491;28;20050;-56
2023/12/10 10:56:20;;;;;;;11.27;2.38;;;11.30;99.90;;;;;;4952517;28;20031;-56
2023/12/10 10:58:46;;;;;;;9.50;2.95;;;11.30;99.90;;;;;;4955220;28;20723;-54
2023/12/10 11:01:44;;;;;;;17.60;3.13;;;11.30;99.90;;;;;;4963372;28;20447;-49
2023/12/10 11:04:15;;;;;;;17.83;2.78;;;11.30;99.90;;;;;;4952268;28;20113;-53
2023/12/10 11:06:45;;;;;;;17.48;2.70;;;11.20;99.90;;;;;;4964067;28;20057;-58
2023/12/10 11:09:10;;;;;;;21.70;2.88;;;11.20;99.90;;;;;;4953917;28;20035;-51
2023/12/10 11:11:40;;;;;;;15.80;2.72;;;11.10;99.90;;;;;;4952569;28;20113;-54
2023/12/10 11:14:22;;;;;;;30.95;2.85;;;11.10;99.90;;;;;;4952362;28;20012;-55
2023/12/10 11:16:59;;;;;;;14.10;3.00;;;11.00;99.90;;;;;;4965148;28;20117;-54
2023/12/10 11:19:25;;;;;;;20.67;3.30;;;10.90;99.90;;;;;;4968665;28;20095;-55
2023/12/10 11:21:51;;;;;;;19.75;2.88;;;10.80;99.90;;;;;;4966385;28;20416;-56
2023/12/10 11:24:17;;;;;;;14.55;2.78;;;10.60;99.90;;;;;;4948446;28;20428;-52
2023/12/10 11:26:43;;;;;;;10.65;2.70;;;10.50;99.90;;;;;;4961743;28;20038;-51
2023/12/10 11:29:09;;;;;;;15.70;3.03;;;10.40;99.90;;;;;;4962797;28;20078;-55
2023/12/10 11:31:35;;;;;;;13.32;2.10;;;10.40;99.90;;;;;;4957596;28;20023;-57
2023/12/10 11:34:01;;;;;;;16.35;2.42;;;10.30;99.90;;;;;;4970187;28;20026;-55
2023/12/10 11:36:26;;;;;;;11.13;1.40;;;10.30;99.90;;;;;;4944256;28;20448;-54
2023/12/10 11:38:52;;;;;;;18.15;2.80;;;10.40;99.90;;;;;;4962037;28;20153;-52
2023/12/10 11:41:18;;;;;;;18.17;2.10;;;10.40;99.90;;;;;;4969600;28;20046;-56
2023/12/10 11:43:45;;;;;;;11.02;1.70;;;10.30;99.90;;;;;;4955239;28;20078;-55
2023/12/10 11:46:21;;;;;;;13.65;2.17;;;10.30;99.90;;;;;;4961776;28;20498;-51
2023/12/10 11:48:47;;;;;;;15.70;2.72;;;10.30;99.90;;;;;;4969616;28;20014;-50
2023/12/10 11:51:14;;;;;;;14.00;2.05;;;10.30;99.90;;;;;;4962456;28;20039;-52
2023/12/10 11:53:40;;;;;;;19.08;3.47;;;10.30;99.90;;;;;;4965341;28;20079;-50
2023/12/10 11:56:08;;;;;;;16.35;2.67;;;10.30;99.90;;;;;;4966768;28;20038;-56
2023/12/10 11:58:34;;;;;;;28.08;2.65;;;10.30;99.90;;;;;;4964674;28;20026;-51
2023/12/10 12:01:00;;;;;;;24.05;3.40;;;10.30;99.90;;;;;;4964330;28;20030;-55
2023/12/10 12:03:29;;;;;;;20.70;2.90;;;10.30;99.90;;;;;;4964945;28;20487;-56
2023/12/10 12:05:55;;;;;;;16.90;3.53;;;10.30;99.90;;;;;;4962633;28;20400;-54
2023/12/10 12:08:26;;;;;;;30.55;4.50;;;10.30;99.90;;;;;;4965696;28;20436;-53
2023/12/10 12:10:51;;;;;;;22.65;3.47;;;10.30;99.90;;;;;;4965693;28;20023;-60
2023/12/10 12:13:17;;;;;;;21.27;2.55;;;10.30;99.90;;;;;;4970144;28;20025;-56
2023/12/10 12:15:47;;;;;;;24.02;2.83;;;10.30;99.90;;;;;;4969761;28;20039;-57
2023/12/10 12:18:13;;;;;;;;;;;10.20;99.90;;;;;;4951836;28;20105;-57
2023/12/10 12:20:39;;;;;;;19.23;2.97;;;10.30;99.90;;;;;;4970424;28;20018;-55
2023/12/10 12:23:04;;;;;;;14.00;2.17;;;10.20;99.90;;;;;;4970262;28;20456;-58
2023/12/10 12:25:34;;;;;;;7.95;1.70;;;10.20;99.90;;;;;;4957994;28;20051;-59
2023/12/10 12:28:00;;;;;;;;;;;10.20;99.90;;;;;;4958543;28;20015;-59
2023/12/10 12:30:26;;;;;;;8.70;1.55;;;10.30;99.90;;;;;;4966609;28;20370;-58
2023/12/10 12:32:52;;;;;;;10.38;1.75;;;10.20;99.90;;;;;;4958998;28;20069;-55
2023/12/10 12:35:18;;;;;;;17.77;2.95;;;10.20;99.90;;;;;;4966907;28;20031;-52
2023/12/10 12:37:43;;;;;;;11.55;2.20;;;10.20;99.90;;;;;;4958437;28;20040;-54
2023/12/10 12:40:10;;;;;;;20.58;2.60;;;10.20;99.90;;;;;;4961808;28;20034;-47
2023/12/10 12:42:36;;;;;;;14.38;2.10;;;10.10;99.90;;;;;;4967386;28;20147;-48